Time;durP1;ratioP1;P1;durP2;ratioP2;P2;SDS_P1;SDS_P2;PMS_P1;PMS_P2;Temp;Humidity;BMP_temperature;BMP_pressure;BME280_temperature;BME280_humidity;BME280_pressure;Samples;Min_cycle;Max_cycle;Signal;HPM_P1;HPM_P2
2022/12/12 00:00:05;;;;;;;;;;;4.30;99.90;;;;;;5067534;28;19928;-71
2022/12/12 00:02:31;;;;;;;;;;;4.30;99.90;;;;;;5060115;28;19916;-72
2022/12/12 00:04:56;;;;;;;;;;;4.30;99.90;;;;;;5046946;28;19913;-72
2022/12/12 00:07:31;;;;;;;;;;;4.30;99.90;;;;;;5058487;28;19913;-72
2022/12/12 00:09:57;;;;;;;;;;;4.30;99.90;;;;;;5058933;28;19963;-72
2022/12/12 00:12:23;;;;;;;;;;;4.30;99.90;;;;;;5059867;28;19913;-72
2022/12/12 00:14:48;;;;;;;;;;;4.30;99.90;;;;;;5057375;28;19921;-72
2022/12/12 00:17:14;;;;;;;;;;;4.30;99.90;;;;;;5066175;28;19922;-72
2022/12/12 00:19:42;;;;;;;;;;;4.30;99.90;;;;;;5076695;28;20337;-72
2022/12/12 00:22:08;;;;;;;;;;;4.30;99.90;;;;;;5076685;28;19970;-72
2022/12/12 00:24:34;;;;;;;;;;;4.30;99.90;;;;;;5076688;28;20027;-72
2022/12/12 00:27:02;;;;;;;;;;;4.30;99.90;;;;;;5058903;28;19909;-72
2022/12/12 00:29:28;;;;;;;;;;;4.30;99.90;;;;;;5076686;28;19913;-72
2022/12/12 00:31:53;;;;;;;;;;;4.30;99.90;;;;;;5072920;28;20265;-72
2022/12/12 00:34:19;;;;;;;;;;;4.30;99.90;;;;;;5057640;28;20000;-72
2022/12/12 00:36:45;;;;;;;;;;;4.30;99.90;;;;;;5096793;28;19912;-72
2022/12/12 00:39:11;;;;;;;;;;;4.30;99.90;;;;;;5060473;28;19925;-72
2022/12/12 00:41:36;;;;;;;;;;;4.20;99.90;;;;;;5055805;28;19924;-72
2022/12/12 00:44:02;;;;;;;;;;;4.30;99.90;;;;;;5058394;28;19939;-72
2022/12/12 00:46:28;;;;;;;;;;;4.30;99.90;;;;;;5055748;28;19909;-72
2022/12/12 00:48:55;;;;;;;;;;;4.30;99.90;;;;;;5040054;28;19929;-72
2022/12/12 00:51:24;;;;;;;;;;;4.30;99.90;;;;;;5059800;28;19974;-71
2022/12/12 00:53:50;;;;;;;;;;;4.30;99.90;;;;;;5057218;28;19952;-71
2022/12/12 00:56:20;;;;;;;;;;;4.30;99.90;;;;;;5057099;28;19920;-71
2022/12/12 00:58:46;;;;;;;;;;;4.30;99.90;;;;;;5057005;28;19913;-71
2022/12/12 01:01:13;;;;;;;;;;;4.30;99.90;;;;;;5056748;28;19984;-72
2022/12/12 01:03:39;;;;;;;;;;;4.30;99.90;;;;;;5055534;28;20156;-71
2022/12/12 01:06:05;;;;;;;;;;;4.30;99.90;;;;;;5062765;28;19912;-71
2022/12/12 01:08:31;;;;;;;;;;;4.30;99.90;;;;;;5075228;28;20418;-71
2022/12/12 01:10:57;;;;;;;;;;;4.30;99.90;;;;;;5060014;28;19913;-71
2022/12/12 01:13:23;;;;;;;;;;;4.30;99.90;;;;;;5058042;28;19920;-71
2022/12/12 01:15:51;;;;;;;;;;;4.30;99.90;;;;;;5043856;28;19923;-71
2022/12/12 01:18:24;;;;;;;;;;;4.30;99.90;;;;;;5068902;28;19912;-71
2022/12/12 01:20:50;;;;;;;;;;;4.30;99.90;;;;;;5069623;28;19909;-71
2022/12/12 01:23:16;;;;;;;;;;;4.30;99.90;;;;;;5074786;28;20342;-71
2022/12/12 01:25:42;;;;;;;;;;;4.30;99.90;;;;;;5056342;28;19909;-71
2022/12/12 01:28:08;;;;;;;;;;;4.30;99.90;;;;;;5075316;28;19916;-71
2022/12/12 01:30:34;;;;;;;;;;;4.30;99.90;;;;;;5075885;28;19916;-72
2022/12/12 01:33:00;;;;;;;;;;;4.30;99.90;;;;;;5075809;28;19916;-71
2022/12/12 01:35:26;;;;;;;;;;;4.30;99.90;;;;;;5054161;28;20376;-71
2022/12/12 01:37:53;;;;;;;;;;;4.30;99.90;;;;;;5055822;28;19940;-71
2022/12/12 01:40:20;;;;;;;;;;;4.30;99.90;;;;;;5055378;28;19916;-75
2022/12/12 01:42:46;;;;;;;;;;;4.20;99.90;;;;;;5055078;28;19990;-71
2022/12/12 01:45:30;;;;;;;;;;;4.20;99.90;;;;;;5082234;28;19912;-72
2022/12/12 01:47:56;;;;;;;;;;;4.20;99.90;;;;;;5064815;28;20876;-71
2022/12/12 01:50:31;;;;;;;;;;;4.20;99.90;;;;;;5056113;28;19956;-72
2022/12/12 01:52:57;;;;;;;;;;;4.20;99.90;;;;;;5071910;28;20279;-72
2022/12/12 01:55:24;;;;;;;;;;;4.20;99.90;;;;;;5055579;28;19924;-72
2022/12/12 01:57:51;;;;;;;;;;;4.30;99.90;;;;;;5055392;28;19924;-72
2022/12/12 02:00:20;;;;;;;;;;;4.30;99.90;;;;;;5055323;28;19971;-72
2022/12/12 02:02:55;;;;;;;;;;;4.30;99.90;;;;;;5057160;28;19924;-71
2022/12/12 02:05:29;;;;;;;;;;;4.30;99.90;;;;;;5057205;28;19917;-72
2022/12/12 02:07:59;;;;;;;;;;;4.30;99.90;;;;;;5056220;28;19948;-71
2022/12/12 02:10:28;;;;;;;;;;;4.30;99.90;;;;;;5058951;28;19956;-72
2022/12/12 02:13:00;;;;;;;;;;;4.30;99.90;;;;;;5055621;28;20388;-72
2022/12/12 02:15:28;;;;;;;;;;;4.30;99.90;;;;;;5055248;28;20380;-72
2022/12/12 02:18:07;;;;;;;;;;;4.20;99.90;;;;;;5055164;28;20357;-72
2022/12/12 02:20:49;;;;;;;;;;;4.20;99.90;;;;;;5037263;28;22128;-72
2022/12/12 02:23:15;;;;;;;;;;;4.20;99.90;;;;;;5059383;28;19976;-71
2022/12/12 02:25:41;;;;;;;;;;;4.20;99.90;;;;;;5063872;28;19948;-72
2022/12/12 02:28:09;;;;;;;;;;;4.30;99.90;;;;;;5068701;28;19913;-71
2022/12/12 02:30:54;;;;;;;;;;;4.30;99.90;;;;;;5053330;28;19919;-71
2022/12/12 02:33:26;;;;;;;;;;;4.30;99.90;;;;;;5071875;28;19912;-72
2022/12/12 02:35:55;;;;;;;;;;;4.30;99.90;;;;;;5069473;28;19924;-72
2022/12/12 02:38:36;;;;;;;;;;;4.30;99.90;;;;;;5072279;28;19948;-72
2022/12/12 02:41:33;;;;;;;;;;;4.30;99.90;;;;;;5067521;28;20004;-71
2022/12/12 02:44:02;;;;;;;;;;;4.30;99.90;;;;;;5056243;28;19963;-71
2022/12/12 02:46:33;;;;;;;;;;;4.30;99.90;;;;;;5065629;28;19912;-71
2022/12/12 02:49:01;;;;;;;;;;;4.20;99.90;;;;;;5063557;28;20372;-72
2022/12/12 02:51:27;;;;;;;;;;;4.10;99.90;;;;;;5072904;28;19971;-72
2022/12/12 02:53:53;;;;;;;;;;;4.10;99.90;;;;;;5074680;28;19966;-71
2022/12/12 02:56:37;;;;;;;;;;;4.10;99.90;;;;;;5073298;28;20318;-72
2022/12/12 02:59:03;;;;;;;;;;;4.00;99.90;;;;;;5055617;28;19936;-71
2022/12/12 03:10:32;;;;;;;;;;;4.00;99.90;;;;;;4987264;28;19921;-71
2022/12/12 03:13:10;;;;;;;;;;;4.00;99.90;;;;;;4979556;28;19914;-71
2022/12/12 03:15:57;;;;;;;;;;;4.00;99.90;;;;;;5016992;28;19921;-72
2022/12/12 03:18:45;;;;;;;;;;;4.00;99.90;;;;;;5055536;28;19917;-72
2022/12/12 03:21:44;;;;;;;;;;;4.00;99.90;;;;;;5055051;28;20024;-72
2022/12/12 03:24:18;;;;;;;;;;;4.00;99.90;;;;;;5054828;28;19913;-71
2022/12/12 03:26:50;;;;;;;;;;;4.00;99.90;;;;;;5056577;28;19913;-72
2022/12/12 03:29:45;;;;;;;;;;;4.00;99.90;;;;;;5075230;28;19915;-71
2022/12/12 03:32:14;;;;;;;;;;;4.00;99.90;;;;;;5049644;28;19920;-72
2022/12/12 03:34:48;;;;;;;;;;;4.00;99.90;;;;;;5074355;28;19920;-72
2022/12/12 03:37:25;;;;;;;;;;;4.00;99.90;;;;;;5074914;28;19926;-72
2022/12/12 03:40:12;;;;;;;;;;;4.00;99.90;;;;;;5064919;28;20023;-74
2022/12/12 03:42:43;;;;;;;;;;;4.00;99.90;;;;;;5065017;28;19922;-72
2022/12/12 03:45:28;;;;;;;;;;;4.00;99.90;;;;;;5059370;28;19951;-71
2022/12/12 03:48:02;;;;;;;;;;;4.00;99.90;;;;;;5058679;28;19956;-71
2022/12/12 03:50:48;;;;;;;;;;;4.00;99.90;;;;;;5059790;28;19956;-73
2022/12/12 03:53:26;;;;;;;;;;;4.00;99.90;;;;;;5064995;28;20568;-72
2022/12/12 03:56:01;;;;;;;;;;;4.00;99.90;;;;;;5064319;28;21862;-73
2022/12/12 04:01:58;;;;;;;;;;;4.00;99.90;;;;;;5058655;28;20591;-73
2022/12/12 04:04:53;;;;;;;;;;;;;;;;;;;;;
2022/12/12 04:07:21;;;;;;;;;;;4.00;99.90;;;;;;5058978;28;19913;-72
2022/12/12 04:13:02;;;;;;;;;;;3.90;99.90;;;;;;5058539;28;19945;-72
2022/12/12 04:15:40;;;;;;;;;;;3.80;99.90;;;;;;5048586;28;19913;-72
2022/12/12 04:18:24;;;;;;;;;;;3.80;99.90;;;;;;5056699;28;19924;-72
2022/12/12 04:24:07;;;;;;;;;;;3.70;99.90;;;;;;5060517;28;20315;-74
2022/12/12 04:27:03;;;;;;;;;;;;;;;;;;;;;
2022/12/12 04:29:47;;;;;;;;;;;3.70;99.90;;;;;;5056711;28;19917;-72
2022/12/12 04:32:28;;;;;;;;;;;3.70;99.90;;;;;;5057019;28;19916;-73
2022/12/12 04:34:57;;;;;;;;;;;3.60;99.90;;;;;;5068451;28;19912;-72
2022/12/12 04:37:26;;;;;;;;;;;3.60;99.90;;;;;;5074028;28;19944;-73
2022/12/12 04:39:53;;;;;;;;;;;3.70;99.90;;;;;;5075821;28;19954;-72
2022/12/12 04:42:31;;;;;;;;;;;;;;;;;;;;;
2022/12/12 04:45:02;;;;;;;;;;;3.70;99.90;;;;;;5076632;28;19967;-72
2022/12/12 04:47:38;;;;;;;;;;;3.70;99.90;;;;;;5058969;28;19917;-72
2022/12/12 04:50:33;;;;;;;;;;;3.70;99.90;;;;;;5063849;28;19924;-72
2022/12/12 04:53:24;;;;;;;;;;;3.60;99.90;;;;;;5060519;28;20354;-73
2022/12/12 04:55:53;;;;;;;;;;;3.60;99.90;;;;;;5076119;28;19972;-72
2022/12/12 04:58:27;;;;;;;;;;;3.60;99.90;;;;;;5058477;28;20287;-72
2022/12/12 05:00:57;;;;;;;;;;;3.50;99.90;;;;;;5076106;28;19957;-72
2022/12/12 05:03:27;;;;;;;;;;;3.50;99.90;;;;;;5076656;28;19908;-72
2022/12/12 05:05:58;;;;;;;;;;;3.50;99.90;;;;;;5074670;28;19939;-72
2022/12/12 05:08:36;;;;;;;;;;;3.40;99.90;;;;;;5075975;28;19919;-72
2022/12/12 05:11:03;;;;;;;;;;;3.40;99.90;;;;;;5062204;28;19939;-73
2022/12/12 05:13:31;;;;;;;;;;;3.40;99.90;;;;;;5055489;28;19913;-72
2022/12/12 05:16:01;;;;;;;;;;;3.40;99.90;;;;;;5071589;28;19917;-72
2022/12/12 05:18:39;;;;;;;;;;;3.40;99.90;;;;;;5073984;28;19912;-72
2022/12/12 05:21:05;;;;;;;;;;;3.30;99.90;;;;;;5056759;28;19919;-72
2022/12/12 05:23:31;;;;;;;;;;;3.30;99.90;;;;;;5071195;28;19908;-72
2022/12/12 05:26:00;;;;;;;;;;;3.20;99.90;;;;;;5075670;28;19909;-72
2022/12/12 05:28:25;;;;;;;;;;;3.20;99.90;;;;;;5057891;28;19908;-72
2022/12/12 05:30:54;;;;;;;;;;;3.30;99.90;;;;;;5073887;28;19918;-72
2022/12/12 05:33:25;;;;;;;;;;;3.30;99.90;;;;;;5075795;28;19915;-72
2022/12/12 05:35:54;;;;;;;;;;;3.30;99.90;;;;;;5071338;28;20338;-72
2022/12/12 05:38:43;;;;;;;;;;;3.30;99.90;;;;;;5067779;28;19970;-72
2022/12/12 05:41:29;;;;;;;;;;;3.30;99.90;;;;;;5066714;28;19932;-72
2022/12/12 05:43:57;;;;;;;;;;;3.30;99.90;;;;;;5055003;28;19927;-74
2022/12/12 05:46:26;;;;;;;;;;;3.30;99.90;;;;;;5074662;28;20350;-72
2022/12/12 05:52:06;;;;;;;;;;;3.40;99.90;;;;;;4972848;28;19960;-72
2022/12/12 05:54:35;;;;;;;;;;;3.30;99.90;;;;;;5072611;28;20429;-72
2022/12/12 05:57:01;;;;;;;;;;;3.40;99.90;;;;;;5055928;28;19941;-72
2022/12/12 05:59:34;;;;;;;;;;;3.30;99.90;;;;;;5053821;28;19967;-72
2022/12/12 06:02:09;;;;;;;;;;;3.40;99.90;;;;;;5055536;28;19927;-71
2022/12/12 06:04:38;;;;;;;;;;;3.40;99.90;;;;;;5056108;28;19919;-70
2022/12/12 06:07:04;;;;;;;;;;;3.40;99.90;;;;;;5055290;28;19920;-71
2022/12/12 06:09:39;;;;;;;;;;;3.40;99.90;;;;;;5058095;28;19920;-71
2022/12/12 06:12:04;;;;;;;;;;;3.50;99.90;;;;;;5053724;28;19927;-70
2022/12/12 06:14:30;;;;;;;;;;;3.50;99.90;;;;;;5069156;28;19916;-71
2022/12/12 06:16:56;;;;;;;;;;;3.40;99.90;;;;;;5066386;28;19916;-71
2022/12/12 06:19:22;;;;;;;;;;;3.40;99.90;;;;;;5070914;28;19999;-70
2022/12/12 06:21:58;;;;;;;;;;;3.40;99.90;;;;;;5066937;28;19916;-70
2022/12/12 06:24:24;;;;;;;;;;;3.40;99.90;;;;;;5071672;28;19913;-69
2022/12/12 06:26:53;;;;;;;;;;;3.40;99.90;;;;;;5066813;28;19920;-70
2022/12/12 06:29:19;;;;;;;;;;;3.50;99.90;;;;;;5071487;28;19934;-69
2022/12/12 06:31:45;;;;;;;;;;;3.50;99.90;;;;;;5049597;28;20009;-70
2022/12/12 06:34:10;;;;;;;;;;;3.50;99.90;;;;;;5074984;28;19920;-69
2022/12/12 06:37:04;;;;;;;;;;;3.50;99.90;;;;;;5069703;28;19923;-70
2022/12/12 06:39:29;;;;;;;;;;;3.60;99.90;;;;;;5070707;28;19947;-70
2022/12/12 06:41:58;;;;;;;;;;;3.60;99.90;;;;;;5052633;28;20334;-69
2022/12/12 06:44:31;;;;;;;;;;;3.60;99.90;;;;;;5074145;28;19942;-70
2022/12/12 06:46:57;;;;;;;;;;;3.60;99.90;;;;;;5066452;28;19924;-69
2022/12/12 06:49:22;;;;;;;;;;;3.60;99.90;;;;;;5073869;28;19912;-70
2022/12/12 06:51:48;;;;;;;;;;;3.60;99.90;;;;;;5097806;28;19913;-69
2022/12/12 06:54:17;;;;;;;;;;;3.60;99.90;;;;;;5074747;28;19916;-69
2022/12/12 06:56:43;;;;;;;;;;;3.50;99.90;;;;;;5060510;28;19920;-70
2022/12/12 06:59:14;;;;;;;;;;;3.50;99.90;;;;;;5074402;28;19915;-69
2022/12/12 07:01:39;;;;;;;;;;;3.60;99.90;;;;;;5071590;28;19951;-68
2022/12/12 07:04:10;;;;;;;;;;;3.60;99.90;;;;;;5069240;28;19909;-69
2022/12/12 07:06:35;;;;;;;;;;;3.60;99.90;;;;;;5075460;28;19913;-69
2022/12/12 07:09:02;;;;;;;;;;;3.70;99.90;;;;;;5081557;28;20312;-70
2022/12/12 07:11:27;;;;;;;;;;;3.70;99.90;;;;;;5066131;28;19956;-69
2022/12/12 07:13:55;;;;;;;;;;;3.70;99.90;;;;;;5053509;28;19920;-69
2022/12/12 07:16:29;;;;;;;;;;;3.70;99.90;;;;;;5069720;28;19924;-69
2022/12/12 07:18:55;;;;;;;;;;;3.90;99.90;;;;;;5071343;28;19912;-70
2022/12/12 07:24:26;;;;;;;;;;;4.40;99.90;;;;;;5072132;28;19920;-69
2022/12/12 07:27:00;;;;;;;;;;;4.50;99.90;;;;;;5060014;28;20423;-68
2022/12/12 07:29:29;;;;;;;;;;;4.50;99.90;;;;;;5056098;28;19970;-66
2022/12/12 07:31:55;;;;;;;;;;;4.50;99.90;;;;;;5039761;28;19948;-69
2022/12/12 07:34:24;;;;;;;;;;;4.40;99.90;;;;;;5056453;28;20340;-68
2022/12/12 07:36:53;;;;;;;;;;;4.50;99.90;;;;;;5055655;28;19924;-68
2022/12/12 07:39:19;;;;;;;;;;;4.60;99.90;;;;;;5043144;28;19921;-68
2022/12/12 07:41:44;;;;;;;;;;;4.70;99.90;;;;;;5057257;28;19947;-67
2022/12/12 07:44:10;;;;;;;;;;;4.80;99.90;;;;;;5056945;28;19963;-68
2022/12/12 07:46:36;;;;;;;;;;;4.80;99.90;;;;;;5050378;28;19961;-70
2022/12/12 07:52:02;;;;;;;;;;;4.90;99.90;;;;;;5063887;28;20268;-71
2022/12/12 07:54:39;;;;;;;;;;;4.60;99.90;;;;;;5079460;28;19912;-70
2022/12/12 07:59:51;;;;;;;;;;;4.50;99.90;;;;;;5041221;28;19947;-71
2022/12/12 08:02:36;;;;;;;;;;;4.40;99.90;;;;;;5071084;28;20015;-70
2022/12/12 08:05:04;;;;;;;;;;;4.40;99.90;;;;;;5054103;28;20394;-70
2022/12/12 08:07:30;;;;;;;;;;;4.50;99.90;;;;;;5059371;28;19917;-71
2022/12/12 08:10:01;;;;;;;;;;;4.50;99.90;;;;;;5051604;28;19912;-70
2022/12/12 08:12:33;;;;;;;;;;;4.50;99.90;;;;;;5070696;28;20370;-72
2022/12/12 08:14:59;;;;;;;;;;;4.50;99.90;;;;;;5078630;28;19920;-70
2022/12/12 08:17:28;;;;;;;;;;;4.50;99.90;;;;;;5071516;28;19916;-69
2022/12/12 08:19:58;;;;;;;;;;;4.50;99.90;;;;;;5076503;28;20430;-71
2022/12/12 08:22:27;;;;;;;;;;;4.60;99.90;;;;;;5069229;28;19912;-71
2022/12/12 08:25:07;;;;;;;;;;;4.70;99.90;;;;;;5078267;28;19916;-70
2022/12/12 08:27:52;;;;;;;;;;;4.80;99.90;;;;;;5078342;28;20368;-71
2022/12/12 08:30:18;;;;;;;;;;;4.80;99.90;;;;;;5048885;28;19909;-71
2022/12/12 08:32:46;;;;;;;;;;;4.80;99.90;;;;;;5074755;28;19969;-71
2022/12/12 08:35:24;;;;;;;;;;;;;;;;;;;;;
2022/12/12 08:37:51;;;;;;;;;;;4.90;99.90;;;;;;5067045;28;19918;-70
2022/12/12 08:40:16;;;;;;;;;;;4.90;99.90;;;;;;5077526;28;19948;-71
2022/12/12 08:42:42;;;;;;;;;;;4.80;99.90;;;;;;5074788;28;19947;-71
2022/12/12 08:45:08;;;;;;;;;;;4.80;99.90;;;;;;5074667;28;19974;-71
2022/12/12 08:47:36;;;;;;;;;;;4.80;99.90;;;;;;5071682;28;19947;-72
2022/12/12 08:50:06;;;;;;;;;;;4.80;99.90;;;;;;5054075;28;20186;-72
2022/12/12 08:52:31;;;;;;;;;;;4.90;99.90;;;;;;5074400;28;20375;-71
2022/12/12 08:55:00;;;;;;;;;;;4.90;99.90;;;;;;5057500;28;19912;-71
2022/12/12 08:57:26;;;;;;;;;;;4.90;99.90;;;;;;5075884;28;20387;-70
2022/12/12 08:59:52;;;;;;;;;;;4.90;99.90;;;;;;5058800;28;19912;-71
2022/12/12 09:02:28;;;;;;;;;;;4.80;99.90;;;;;;5069925;28;19909;-70
2022/12/12 09:04:56;;;;;;;;;;;4.80;99.90;;;;;;5048365;28;19918;-71
2022/12/12 09:07:31;;;;;;;;;;;4.80;99.90;;;;;;5071418;28;19979;-71
2022/12/12 09:10:29;;;;;;;;;;;5.00;99.90;;;;;;5076776;28;20384;-70
2022/12/12 09:13:04;;;;;;;;;;;4.90;99.90;;;;;;5074368;28;19967;-71
2022/12/12 09:15:37;;;;;;;;;;;4.90;99.90;;;;;;5074077;28;19909;-71
2022/12/12 09:18:21;;;;;;;;;;;4.80;99.90;;;;;;5073794;28;19923;-71
2022/12/12 09:20:53;;;;;;;;;;;5.00;99.90;;;;;;5069540;28;19913;-71
2022/12/12 09:23:20;;;;;;;;;;;5.00;99.90;;;;;;5074194;28;19908;-71
2022/12/12 09:25:46;;;;;;;;;;;4.90;99.90;;;;;;5075019;28;19920;-71
2022/12/12 09:31:12;;;;;;;;;;;4.90;99.90;;;;;;5068308;28;19913;-69
2022/12/12 09:33:42;;;;;;;;;;;4.90;99.90;;;;;;5075119;28;19917;-71
2022/12/12 09:36:12;;;;;;;;;;;4.90;99.90;;;;;;5074078;28;19924;-70
2022/12/12 09:38:38;;;;;;;;;;;4.80;99.90;;;;;;5068673;28;19991;-70
2022/12/12 09:44:45;;;;;;;;;;;4.90;99.90;;;;;;5064771;28;19923;-70
2022/12/12 09:50:07;;;;;;;;;;;5.10;99.90;;;;;;5046179;28;19922;-70
2022/12/12 09:52:38;;;;;;;;;;;5.10;99.90;;;;;;5073230;28;19960;-72
2022/12/12 09:55:19;;;;;;;;;;;5.10;99.90;;;;;;5075468;28;19912;-73
2022/12/12 09:57:48;;;;;;;;;;;5.30;99.90;;;;;;5074068;28;19984;-72
2022/12/12 10:00:15;;;;;;;;;;;5.40;99.90;;;;;;5074285;28;19916;-73
2022/12/12 10:02:53;;;;;;;;;;;5.40;99.90;;;;;;5071897;28;19919;-74
2022/12/12 10:08:48;;;;;;;;;;;5.50;99.90;;;;;;5074009;28;20014;-73
2022/12/12 10:14:33;;;;;;;;;;;5.60;99.90;;;;;;5073500;28;19919;-72
2022/12/12 10:17:07;;;;;;;;;;;5.50;99.90;;;;;;5052295;28;19924;-73
2022/12/12 10:19:37;;;;;;;;;;;5.60;99.90;;;;;;5073979;28;19920;-70
2022/12/12 10:22:09;;;;;;;;;;;5.60;99.90;;;;;;5072394;28;19920;-73
2022/12/12 10:24:38;;;;;;;;;;;5.70;99.90;;;;;;5073469;28;19909;-72
2022/12/12 10:27:12;;;;;;;;;;;5.70;99.90;;;;;;5067594;28;20459;-72
2022/12/12 10:29:40;;;;;;;;;;;5.80;99.90;;;;;;5072217;28;19928;-73
2022/12/12 10:32:27;;;;;;;;;;;5.90;99.90;;;;;;5072947;28;19913;-73
2022/12/12 10:35:00;;;;;;;;;;;6.00;99.90;;;;;;5069822;28;20372;-73
2022/12/12 10:37:47;;;;;;;;;;;6.10;99.90;;;;;;5066393;28;19924;-73
2022/12/12 10:40:30;;;;;;;;;;;6.10;99.90;;;;;;5063473;28;19919;-74
2022/12/12 10:42:56;;;;;;;;;;;6.10;99.90;;;;;;5069629;28;20006;-73
2022/12/12 10:45:41;;;;;;;;;;;6.20;99.90;;;;;;5068516;28;19944;-73
2022/12/12 10:48:07;;;;;;;;;;;6.20;99.90;;;;;;5063197;28;19970;-73
2022/12/12 10:50:36;;;;;;;;;;;6.30;99.90;;;;;;5068256;28;20376;-73
2022/12/12 10:53:03;;;;;;;;;;;6.30;99.90;;;;;;5065112;28;19913;-73
2022/12/12 10:55:36;;;;;;;;;;;6.40;99.90;;;;;;5067106;28;19920;-74
2022/12/12 10:58:02;;;;;;;;;;;6.40;99.90;;;;;;5069407;28;19923;-74
2022/12/12 11:00:34;;;;;;;;;;;6.40;99.90;;;;;;5072540;28;19912;-74
2022/12/12 11:06:14;;;;;;;;;;;6.40;99.90;;;;;;4976049;28;20378;-74
2022/12/12 11:08:51;;;;;;;;;;;6.30;99.90;;;;;;5057670;28;19939;-74
2022/12/12 11:11:19;;;;;;;;;;;6.40;99.90;;;;;;5083956;28;19920;-74
2022/12/12 11:13:49;;;;;;;;;;;6.30;99.90;;;;;;5064599;28;19920;-74
2022/12/12 11:16:36;;;;;;;;;;;6.40;99.90;;;;;;5047536;28;19924;-74
2022/12/12 11:19:04;;;;;;;;;;;6.40;99.90;;;;;;5065894;28;19909;-74
2022/12/12 11:21:44;;;;;;;;;;;6.50;99.90;;;;;;5037118;28;19913;-74
2022/12/12 11:24:15;;;;;;;;;;;6.60;99.90;;;;;;5052241;28;20291;-74
2022/12/12 11:27:01;;;;;;;;;;;6.80;99.90;;;;;;5070451;28;19913;-73
2022/12/12 11:29:44;;;;;;;;;;;6.80;99.90;;;;;;5065048;28;19920;-74
2022/12/12 11:32:21;;;;;;;;;;;6.80;99.90;;;;;;5063278;28;19923;-74
2022/12/12 11:35:01;;;;;;;;;;;6.90;99.90;;;;;;5066269;28;19920;-74
2022/12/12 11:37:32;;;;;;;;;;;6.90;99.90;;;;;;5061889;28;19917;-74
2022/12/12 11:39:58;;;;;;;;;;;6.90;99.90;;;;;;5071848;28;19913;-74
2022/12/12 11:42:35;;;;;;;;;;;6.80;99.90;;;;;;5069827;28;19927;-74
2022/12/12 11:45:08;;;;;;;;;;;6.90;99.90;;;;;;5066534;28;19913;-74
2022/12/12 11:50:46;;;;;;;;;;;6.80;99.90;;;;;;5069962;28;19939;-74
2022/12/12 11:53:12;;;;;;;;;;;6.90;99.90;;;;;;5066605;28;19959;-74
2022/12/12 11:56:33;;;;;;;;;;;6.90;99.90;;;;;;5075630;28;20372;-74
2022/12/12 11:58:52;;;;;;;;;;;6.90;99.90;;;;;;5056036;28;19920;-74
2022/12/12 12:01:22;;;;;;;;;;;7.10;99.90;;;;;;5074372;28;19915;-73
2022/12/12 12:04:06;;;;;;;;;;;7.00;99.90;;;;;;5072311;28;19924;-74
2022/12/12 12:06:35;;;;;;;;;;;7.00;99.90;;;;;;5069813;28;20242;-74
2022/12/12 12:09:29;;;;;;;;;;;;;;;;;;;;;
2022/12/12 12:11:56;;;;;;;;;;;7.00;99.90;;;;;;5062432;28;19913;-74
2022/12/12 12:14:47;;;;;;;;;;;7.10;99.90;;;;;;5055459;28;19927;-74
2022/12/12 12:17:37;;;;;;;;;;;7.20;99.90;;;;;;5054313;28;19928;-74
2022/12/12 12:20:05;;;;;;;;;;;7.20;99.90;;;;;;5071650;28;19921;-74
2022/12/12 12:22:40;;;;;;;;;;;7.10;99.90;;;;;;5071410;28;19913;-74
2022/12/12 12:25:18;;;;;;;;;;;7.20;99.90;;;;;;5055032;28;19912;-74
2022/12/12 12:27:50;;;;;;;;;;;7.10;99.90;;;;;;5062442;28;20454;-74
2022/12/12 12:30:15;;;;;;;;;;;7.10;99.90;;;;;;5070307;28;19921;-74
2022/12/12 12:33:09;;;;;;;;;;;7.20;99.90;;;;;;5066494;28;19915;-73
2022/12/12 12:35:45;;;;;;;;;;;;;;;;;;;;;
2022/12/12 12:38:22;;;;;;;;;;;7.10;99.90;;;;;;5060670;28;19916;-74
2022/12/12 12:41:06;;;;;;;;;;;7.00;99.90;;;;;;5052534;28;19909;-74
2022/12/12 12:43:48;;;;;;;;;;;7.00;99.90;;;;;;5069448;28;19918;-74
2022/12/12 12:46:18;;;;;;;;;;;6.90;99.90;;;;;;5064168;28;19922;-74
2022/12/12 12:48:46;;;;;;;;;;;6.80;99.90;;;;;;5062693;28;20011;-74
2022/12/12 12:51:33;;;;;;;;;;;6.90;99.90;;;;;;5065581;28;19923;-76
2022/12/12 12:54:04;;;;;;;;;;;6.80;99.90;;;;;;5074815;28;19913;-74
2022/12/12 12:56:38;;;;;;;;;;;6.80;99.90;;;;;;5072496;28;19998;-74
2022/12/12 12:59:08;;;;;;;;;;;6.80;99.90;;;;;;5074242;28;19916;-74
2022/12/12 13:01:45;;;;;;;;;;;6.90;99.90;;;;;;5068084;28;19994;-76
2022/12/12 13:04:50;;;;;;;;;;;6.80;99.90;;;;;;5081344;28;19916;-75
2022/12/12 13:07:34;;;;;;;;;;;6.80;99.90;;;;;;4974543;28;20533;-74
2022/12/12 13:10:05;;;;;;;;;;;6.80;99.90;;;;;;4973724;28;19914;-75
2022/12/12 13:12:49;;;;;;;;;;;6.70;99.90;;;;;;5023460;28;19916;-74
2022/12/12 13:15:25;;;;;;;;;;;6.60;99.90;;;;;;5061138;28;20057;-74
2022/12/12 13:18:09;;;;;;;;;;;6.70;99.90;;;;;;5078874;28;19913;-74
2022/12/12 13:20:38;;;;;;;;;;;6.80;99.90;;;;;;5072864;28;19995;-75
2022/12/12 13:23:13;;;;;;;;;;;6.80;99.90;;;;;;5073714;28;19916;-75
2022/12/12 13:25:48;;;;;;;;;;;6.80;99.90;;;;;;5067408;28;19954;-74
2022/12/12 13:28:17;;;;;;;;;;;6.80;99.90;;;;;;5072067;28;19913;-74
2022/12/12 13:31:11;;;;;;;;;;;6.80;99.90;;;;;;5058579;28;19913;-74
2022/12/12 13:33:42;;;;;;;;;;;6.80;99.90;;;;;;5072719;28;19935;-74
2022/12/12 13:36:28;;;;;;;;;;;6.80;99.90;;;;;;5062164;28;19948;-74
2022/12/12 13:39:07;;;;;;;;;;;6.80;99.90;;;;;;5063607;28;19917;-74
2022/12/12 13:41:56;;;;;;;;;;;6.80;99.90;;;;;;5069752;28;19912;-74
2022/12/12 13:44:53;;;;;;;;;;;6.80;99.90;;;;;;5061989;28;19912;-74
2022/12/12 13:47:25;;;;;;;;;;;6.80;99.90;;;;;;5055726;28;19912;-74
2022/12/12 13:49:54;;;;;;;;;;;6.90;99.90;;;;;;5072707;28;20162;-75
2022/12/12 13:52:28;;;;;;;;;;;6.90;99.90;;;;;;5071601;28;19921;-74
2022/12/12 13:55:23;;;;;;;;;;;7.10;99.90;;;;;;5082433;28;20020;-74
2022/12/12 13:57:58;;;;;;;;;;;7.10;99.90;;;;;;5056925;28;19921;-74
2022/12/12 14:00:25;;;;;;;;;;;6.90;99.90;;;;;;5070871;28;19921;-75
2022/12/12 14:03:26;;;;;;;;;;;6.90;99.90;;;;;;5070590;28;19966;-75
2022/12/12 14:05:52;;;;;;;;;;;6.90;99.90;;;;;;5042256;28;19924;-74
2022/12/12 14:08:18;;;;;;;;;;;6.90;99.90;;;;;;5066914;28;19912;-75
2022/12/12 14:10:43;;;;;;;;;;;6.90;99.90;;;;;;5069427;28;19938;-74
2022/12/12 14:13:21;;;;;;;;;;;6.80;99.90;;;;;;5065957;28;19970;-74
2022/12/12 14:15:56;;;;;;;;;;;6.90;99.90;;;;;;5048225;28;19966;-74
2022/12/12 14:18:23;;;;;;;;;;;6.80;99.90;;;;;;5068426;28;19943;-74
2022/12/12 14:20:58;;;;;;;;;;;6.80;99.90;;;;;;5070088;28;20273;-74
2022/12/12 14:23:26;;;;;;;;;;;6.80;99.90;;;;;;5052533;28;19916;-74
2022/12/12 14:25:52;;;;;;;;;;;6.70;99.90;;;;;;5069548;28;19973;-74
2022/12/12 14:28:17;;;;;;;;;;;6.70;99.90;;;;;;5075746;28;20387;-74
2022/12/12 14:30:46;;;;;;;;;;;6.70;99.90;;;;;;5068967;28;19920;-74
2022/12/12 14:33:15;;;;;;;;;;;6.70;99.90;;;;;;5068983;28;19916;-74
2022/12/12 14:35:40;;;;;;;;;;;6.70;99.90;;;;;;5069148;28;20334;-75
2022/12/12 14:38:24;;;;;;;;;;;6.70;99.90;;;;;;5061225;28;19920;-75
2022/12/12 14:40:52;;;;;;;;;;;6.60;99.90;;;;;;5067636;28;19981;-75
2022/12/12 14:43:22;;;;;;;;;;;6.60;99.90;;;;;;5066182;28;20008;-75
2022/12/12 14:45:48;;;;;;;;;;;6.60;99.90;;;;;;5068494;28;19912;-75
2022/12/12 14:48:13;;;;;;;;;;;6.50;99.90;;;;;;5061139;28;20054;-74
2022/12/12 14:50:42;;;;;;;;;;;6.50;99.90;;;;;;5056320;28;19917;-74
2022/12/12 14:53:16;;;;;;;;;;;6.50;99.90;;;;;;5068694;28;19912;-75
2022/12/12 14:55:46;;;;;;;;;;;6.50;99.90;;;;;;5071221;28;19958;-75
2022/12/12 14:58:12;;;;;;;;;;;6.40;99.90;;;;;;5068797;28;19948;-74
2022/12/12 15:00:44;;;;;;;;;;;6.30;99.90;;;;;;5051767;28;19909;-75
2022/12/12 15:03:11;;;;;;;;;;;6.40;99.90;;;;;;5069786;28;19944;-74
2022/12/12 15:05:37;;;;;;;;;;;6.30;99.90;;;;;;5064157;28;19920;-74
2022/12/12 15:08:02;;;;;;;;;;;6.20;99.90;;;;;;5071235;28;20303;-74
2022/12/12 15:10:29;;;;;;;;;;;6.10;99.90;;;;;;5051006;28;20228;-74
2022/12/12 15:12:54;;;;;;;;;;;6.10;99.90;;;;;;5065923;28;19909;-74
2022/12/12 15:15:25;;;;;;;;;;;6.00;99.90;;;;;;5068448;28;19923;-74
2022/12/12 15:17:51;;;;;;;;;;;5.90;99.90;;;;;;5058933;28;20098;-74
2022/12/12 15:20:21;;;;;;;;;;;5.70;99.90;;;;;;5069960;28;20435;-74
2022/12/12 15:22:50;;;;;;;;;;;5.60;99.90;;;;;;5067798;28;20402;-74
2022/12/12 15:25:19;;;;;;;;;;;5.50;99.90;;;;;;5070198;28;19913;-74
2022/12/12 15:27:45;;;;;;;;;;;5.40;99.90;;;;;;5070994;28;19951;-74
2022/12/12 15:30:11;;;;;;;;;;;5.30;99.90;;;;;;5054419;28;19958;-74
2022/12/12 15:32:37;;;;;;;;;;;5.30;99.90;;;;;;5072249;28;19929;-74
2022/12/12 15:35:05;;;;;;;;;;;5.20;99.90;;;;;;5067712;28;19912;-75
2022/12/12 15:37:32;;;;;;;;;;;5.20;99.90;;;;;;5071662;28;19923;-75
2022/12/12 15:40:10;;;;;;;;;;;5.10;99.90;;;;;;5051688;28;20011;-74
2022/12/12 15:42:37;;;;;;;;;;;5.10;99.90;;;;;;5070468;28;20002;-75
2022/12/12 15:45:03;;;;;;;;;;;5.00;99.90;;;;;;5062998;28;19913;-74
2022/12/12 15:47:29;;;;;;;;;;;5.00;99.90;;;;;;5069411;28;20011;-74
2022/12/12 15:50:04;;;;;;;;;;;4.90;99.90;;;;;;5071204;28;20113;-74
2022/12/12 15:52:30;;;;;;;;;;;4.80;99.90;;;;;;5055361;28;20003;-74
2022/12/12 15:54:57;;;;;;;;;;;4.70;99.90;;;;;;5068532;28;20260;-74
2022/12/12 15:57:24;;;;;;;;;;;4.70;99.90;;;;;;5070559;28;19923;-75